sensor_id;sensor_type;location;lat;lon;timestamp;temperature;humidity
51839;DHT22;37886;53.174;6.368;2023-04-24T00:02:15;10.80;99.90
51839;DHT22;37886;53.174;6.368;2023-04-24T00:04:42;10.80;99.90
51839;DHT22;37886;53.174;6.368;2023-04-24T00:07:11;10.80;99.90
51839;DHT22;37886;53.174;6.368;2023-04-24T00:09:36;10.80;99.90
51839;DHT22;37886;53.174;6.368;2023-04-24T00:12:02;10.80;99.90
51839;DHT22;37886;53.174;6.368;2023-04-24T00:14:31;10.80;99.90
51839;DHT22;37886;53.174;6.368;2023-04-24T00:16:57;10.80;99.90
51839;DHT22;37886;53.174;6.368;2023-04-24T00:19:22;10.90;99.90
51839;DHT22;37886;53.174;6.368;2023-04-24T00:21:48;10.90;99.90
51839;DHT22;37886;53.174;6.368;2023-04-24T00:24:17;10.90;99.90
51839;DHT22;37886;53.174;6.368;2023-04-24T00:26:44;10.90;99.90
51839;DHT22;37886;53.174;6.368;2023-04-24T00:29:10;10.80;99.90
51839;DHT22;37886;53.174;6.368;2023-04-24T00:31:35;10.70;99.90
51839;DHT22;37886;53.174;6.368;2023-04-24T00:34:02;10.80;99.90
51839;DHT22;37886;53.174;6.368;2023-04-24T00:36:28;10.80;99.90
51839;DHT22;37886;53.174;6.368;2023-04-24T00:38:54;10.70;99.90
51839;DHT22;37886;53.174;6.368;2023-04-24T00:41:20;10.70;99.90
51839;DHT22;37886;53.174;6.368;2023-04-24T00:43:47;10.70;99.90
51839;DHT22;37886;53.174;6.368;2023-04-24T00:46:13;10.60;99.90
51839;DHT22;37886;53.174;6.368;2023-04-24T00:48:40;10.50;99.90
51839;DHT22;37886;53.174;6.368;2023-04-24T00:51:06;10.50;99.90
51839;DHT22;37886;53.174;6.368;2023-04-24T00:53:32;10.40;99.90
51839;DHT22;37886;53.174;6.368;2023-04-24T00:55:58;10.40;99.90
51839;DHT22;37886;53.174;6.368;2023-04-24T00:58:25;10.30;99.90
51839;DHT22;37886;53.174;6.368;2023-04-24T01:00:51;10.40;99.90
51839;DHT22;37886;53.174;6.368;2023-04-24T01:03:24;10.30;99.90
51839;DHT22;37886;53.174;6.368;2023-04-24T01:05:52;10.40;99.90
51839;DHT22;37886;53.174;6.368;2023-04-24T01:08:21;10.40;99.90
51839;DHT22;37886;53.174;6.368;2023-04-24T01:10:50;10.30;99.90
51839;DHT22;37886;53.174;6.368;2023-04-24T01:13:17;10.40;99.90
51839;DHT22;37886;53.174;6.368;2023-04-24T01:15:43;10.30;99.90
51839;DHT22;37886;53.174;6.368;2023-04-24T01:18:08;10.30;99.90
51839;DHT22;37886;53.174;6.368;2023-04-24T01:20:35;10.30;99.90
51839;DHT22;37886;53.174;6.368;2023-04-24T01:23:05;10.30;99.90
51839;DHT22;37886;53.174;6.368;2023-04-24T01:25:31;10.30;99.90
51839;DHT22;37886;53.174;6.368;2023-04-24T01:27:58;10.20;99.90
51839;DHT22;37886;53.174;6.368;2023-04-24T01:30:25;10.30;99.90
51839;DHT22;37886;53.174;6.368;2023-04-24T01:32:51;10.20;99.90
51839;DHT22;37886;53.174;6.368;2023-04-24T01:35:17;10.20;99.90
51839;DHT22;37886;53.174;6.368;2023-04-24T01:37:43;10.20;99.90
51839;DHT22;37886;53.174;6.368;2023-04-24T01:40:10;10.20;99.90
51839;DHT22;37886;53.174;6.368;2023-04-24T01:42:35;10.20;99.90
51839;DHT22;37886;53.174;6.368;2023-04-24T01:45:03;10.20;99.90
51839;DHT22;37886;53.174;6.368;2023-04-24T01:47:31;10.20;99.90
51839;DHT22;37886;53.174;6.368;2023-04-24T01:49:57;10.20;99.90
51839;DHT22;37886;53.174;6.368;2023-04-24T01:52:23;10.20;99.90
51839;DHT22;37886;53.174;6.368;2023-04-24T01:54:48;10.20;99.90
51839;DHT22;37886;53.174;6.368;2023-04-24T01:57:16;10.10;99.90
51839;DHT22;37886;53.174;6.368;2023-04-24T01:59:41;10.10;99.90
51839;DHT22;37886;53.174;6.368;2023-04-24T02:02:07;10.10;99.90
51839;DHT22;37886;53.174;6.368;2023-04-24T02:04:33;10.20;99.90
51839;DHT22;37886;53.174;6.368;2023-04-24T02:06:59;10.10;99.90
51839;DHT22;37886;53.174;6.368;2023-04-24T02:09:25;10.10;99.90
51839;DHT22;37886;53.174;6.368;2023-04-24T02:11:50;10.10;99.90
51839;DHT22;37886;53.174;6.368;2023-04-24T02:14:16;10.10;99.90
51839;DHT22;37886;53.174;6.368;2023-04-24T02:16:42;10.10;99.90
51839;DHT22;37886;53.174;6.368;2023-04-24T02:19:09;10.10;99.90
51839;DHT22;37886;53.174;6.368;2023-04-24T02:21:35;10.10;99.90
51839;DHT22;37886;53.174;6.368;2023-04-24T02:24:01;10.10;99.90
51839;DHT22;37886;53.174;6.368;2023-04-24T02:26:26;10.10;99.90
51839;DHT22;37886;53.174;6.368;2023-04-24T02:28:52;10.10;99.90
51839;DHT22;37886;53.174;6.368;2023-04-24T02:31:18;10.10;99.90
51839;DHT22;37886;53.174;6.368;2023-04-24T02:33:43;10.10;99.90
51839;DHT22;37886;53.174;6.368;2023-04-24T02:36:09;10.10;99.90
51839;DHT22;37886;53.174;6.368;2023-04-24T02:38:35;10.00;99.90
51839;DHT22;37886;53.174;6.368;2023-04-24T02:41:00;10.10;99.90
51839;DHT22;37886;53.174;6.368;2023-04-24T02:43:27;10.10;99.90
51839;DHT22;37886;53.174;6.368;2023-04-24T02:45:53;10.10;99.90
51839;DHT22;37886;53.174;6.368;2023-04-24T02:48:19;10.10;99.90
51839;DHT22;37886;53.174;6.368;2023-04-24T02:50:46;10.10;99.90
51839;DHT22;37886;53.174;6.368;2023-04-24T02:53:12;10.10;99.90
51839;DHT22;37886;53.174;6.368;2023-04-24T02:55:37;10.10;99.90
51839;DHT22;37886;53.174;6.368;2023-04-24T02:58:03;10.10;99.90
51839;DHT22;37886;53.174;6.368;2023-04-24T03:00:29;10.10;99.90
51839;DHT22;37886;53.174;6.368;2023-04-24T03:02:55;10.20;99.90
51839;DHT22;37886;53.174;6.368;2023-04-24T03:05:21;10.20;99.90
51839;DHT22;37886;53.174;6.368;2023-04-24T03:07:47;10.20;99.90
51839;DHT22;37886;53.174;6.368;2023-04-24T03:10:13;10.20;99.90
51839;DHT22;37886;53.174;6.368;2023-04-24T03:12:39;10.20;99.90
51839;DHT22;37886;53.174;6.368;2023-04-24T03:15:05;10.20;99.90
51839;DHT22;37886;53.174;6.368;2023-04-24T03:17:31;10.20;99.90
51839;DHT22;37886;53.174;6.368;2023-04-24T03:19:56;10.20;99.90
51839;DHT22;37886;53.174;6.368;2023-04-24T03:22:22;10.30;99.90
51839;DHT22;37886;53.174;6.368;2023-04-24T03:24:48;10.20;99.90
51839;DHT22;37886;53.174;6.368;2023-04-24T03:27:13;10.20;99.90
51839;DHT22;37886;53.174;6.368;2023-04-24T03:29:39;10.30;99.90
51839;DHT22;37886;53.174;6.368;2023-04-24T03:32:05;10.30;99.90
51839;DHT22;37886;53.174;6.368;2023-04-24T03:34:31;10.30;99.90
51839;DHT22;37886;53.174;6.368;2023-04-24T03:36:56;10.30;99.90
51839;DHT22;37886;53.174;6.368;2023-04-24T03:39:22;10.30;99.90
51839;DHT22;37886;53.174;6.368;2023-04-24T03:41:48;10.30;99.90
51839;DHT22;37886;53.174;6.368;2023-04-24T03:44:14;10.30;99.90
51839;DHT22;37886;53.174;6.368;2023-04-24T03:46:40;10.30;99.90
51839;DHT22;37886;53.174;6.368;2023-04-24T03:49:06;10.30;99.90
51839;DHT22;37886;53.174;6.368;2023-04-24T03:51:32;10.30;99.90
51839;DHT22;37886;53.174;6.368;2023-04-24T03:53:57;10.40;99.90
51839;DHT22;37886;53.174;6.368;2023-04-24T03:56:23;10.30;99.90
51839;DHT22;37886;53.174;6.368;2023-04-24T03:58:49;10.30;99.90
51839;DHT22;37886;53.174;6.368;2023-04-24T04:01:14;10.30;99.90
51839;DHT22;37886;53.174;6.368;2023-04-24T04:03:41;10.30;99.90
51839;DHT22;37886;53.174;6.368;2023-04-24T04:06:07;10.30;99.90
51839;DHT22;37886;53.174;6.368;2023-04-24T04:08:32;10.30;99.90
51839;DHT22;37886;53.174;6.368;2023-04-24T04:10:58;10.40;99.90
51839;DHT22;37886;53.174;6.368;2023-04-24T04:13:24;10.30;99.90
51839;DHT22;37886;53.174;6.368;2023-04-24T04:15:50;10.30;99.90
51839;DHT22;37886;53.174;6.368;2023-04-24T04:18:16;10.30;99.90
51839;DHT22;37886;53.174;6.368;2023-04-24T04:20:41;10.40;99.90
51839;DHT22;37886;53.174;6.368;2023-04-24T04:23:07;10.30;99.90
51839;DHT22;37886;53.174;6.368;2023-04-24T04:25:33;10.30;99.90
51839;DHT22;37886;53.174;6.368;2023-04-24T04:27:58;10.30;99.90
51839;DHT22;37886;53.174;6.368;2023-04-24T04:30:25;10.40;99.90
51839;DHT22;37886;53.174;6.368;2023-04-24T04:32:51;10.50;99.90
51839;DHT22;37886;53.174;6.368;2023-04-24T04:35:17;10.50;99.90
51839;DHT22;37886;53.174;6.368;2023-04-24T04:37:43;10.50;99.90
51839;DHT22;37886;53.174;6.368;2023-04-24T04:40:09;10.50;99.90
51839;DHT22;37886;53.174;6.368;2023-04-24T04:42:37;10.50;99.90
51839;DHT22;37886;53.174;6.368;2023-04-24T04:45:07;10.50;99.90
51839;DHT22;37886;53.174;6.368;2023-04-24T04:47:34;10.50;99.90
51839;DHT22;37886;53.174;6.368;2023-04-24T04:50:00;10.50;99.90
51839;DHT22;37886;53.174;6.368;2023-04-24T04:52:26;10.50;99.90
51839;DHT22;37886;53.174;6.368;2023-04-24T04:54:52;10.50;99.90
51839;DHT22;37886;53.174;6.368;2023-04-24T04:57:18;10.50;99.90
51839;DHT22;37886;53.174;6.368;2023-04-24T04:59:44;10.50;99.90
51839;DHT22;37886;53.174;6.368;2023-04-24T05:02:10;10.50;99.90
51839;DHT22;37886;53.174;6.368;2023-04-24T05:04:35;10.40;99.90
51839;DHT22;37886;53.174;6.368;2023-04-24T05:07:01;10.40;99.90
51839;DHT22;37886;53.174;6.368;2023-04-24T05:09:27;10.40;99.90
51839;DHT22;37886;53.174;6.368;2023-04-24T05:11:55;10.40;99.90
51839;DHT22;37886;53.174;6.368;2023-04-24T05:14:21;10.40;99.90
51839;DHT22;37886;53.174;6.368;2023-04-24T05:16:47;10.40;99.90
51839;DHT22;37886;53.174;6.368;2023-04-24T05:19:13;10.40;99.90
51839;DHT22;37886;53.174;6.368;2023-04-24T05:21:40;10.40;99.90
51839;DHT22;37886;53.174;6.368;2023-04-24T05:24:06;10.30;99.90
51839;DHT22;37886;53.174;6.368;2023-04-24T05:26:31;10.30;99.90
51839;DHT22;37886;53.174;6.368;2023-04-24T05:28:57;10.30;99.90
51839;DHT22;37886;53.174;6.368;2023-04-24T05:31:23;10.30;99.90
51839;DHT22;37886;53.174;6.368;2023-04-24T05:33:49;10.30;99.90
51839;DHT22;37886;53.174;6.368;2023-04-24T05:36:15;10.30;99.90
51839;DHT22;37886;53.174;6.368;2023-04-24T05:38:40;10.30;99.90
51839;DHT22;37886;53.174;6.368;2023-04-24T05:41:06;10.20;99.90
51839;DHT22;37886;53.174;6.368;2023-04-24T05:43:32;10.20;99.90
51839;DHT22;37886;53.174;6.368;2023-04-24T05:45:57;10.20;99.90
51839;DHT22;37886;53.174;6.368;2023-04-24T05:48:23;10.20;99.90
51839;DHT22;37886;53.174;6.368;2023-04-24T05:50:49;10.20;99.90
51839;DHT22;37886;53.174;6.368;2023-04-24T05:53:15;10.10;99.90
51839;DHT22;37886;53.174;6.368;2023-04-24T05:55:41;10.20;99.90
51839;DHT22;37886;53.174;6.368;2023-04-24T05:58:06;10.20;99.90
51839;DHT22;37886;53.174;6.368;2023-04-24T06:00:32;10.20;99.90
51839;DHT22;37886;53.174;6.368;2023-04-24T06:03:00;10.20;99.90
51839;DHT22;37886;53.174;6.368;2023-04-24T06:05:25;10.20;99.90
51839;DHT22;37886;53.174;6.368;2023-04-24T06:07:51;10.20;99.90
51839;DHT22;37886;53.174;6.368;2023-04-24T06:10:17;10.20;99.90
51839;DHT22;37886;53.174;6.368;2023-04-24T06:12:43;10.20;99.90
51839;DHT22;37886;53.174;6.368;2023-04-24T06:15:09;10.20;99.90
51839;DHT22;37886;53.174;6.368;2023-04-24T06:17:35;10.30;99.90
51839;DHT22;37886;53.174;6.368;2023-04-24T06:20:01;10.30;99.90
51839;DHT22;37886;53.174;6.368;2023-04-24T06:22:28;10.30;99.90
51839;DHT22;37886;53.174;6.368;2023-04-24T06:24:54;10.30;99.90
51839;DHT22;37886;53.174;6.368;2023-04-24T06:27:20;10.30;99.90
51839;DHT22;37886;53.174;6.368;2023-04-24T06:29:45;10.40;99.90
51839;DHT22;37886;53.174;6.368;2023-04-24T06:32:11;10.40;99.90
51839;DHT22;37886;53.174;6.368;2023-04-24T06:34:36;10.40;99.90
51839;DHT22;37886;53.174;6.368;2023-04-24T06:37:02;10.40;99.90
51839;DHT22;37886;53.174;6.368;2023-04-24T06:39:28;10.40;99.90
51839;DHT22;37886;53.174;6.368;2023-04-24T06:41:53;10.40;99.90
51839;DHT22;37886;53.174;6.368;2023-04-24T06:44:19;10.40;99.90
51839;DHT22;37886;53.174;6.368;2023-04-24T06:46:45;10.40;99.90
51839;DHT22;37886;53.174;6.368;2023-04-24T06:49:11;10.40;99.90
51839;DHT22;37886;53.174;6.368;2023-04-24T06:51:37;10.40;99.90
51839;DHT22;37886;53.174;6.368;2023-04-24T06:54:03;10.40;99.90
51839;DHT22;37886;53.174;6.368;2023-04-24T06:56:28;10.40;99.90
51839;DHT22;37886;53.174;6.368;2023-04-24T06:58:54;10.40;99.90
51839;DHT22;37886;53.174;6.368;2023-04-24T07:01:20;10.40;99.90
51839;DHT22;37886;53.174;6.368;2023-04-24T07:03:46;10.30;99.90
51839;DHT22;37886;53.174;6.368;2023-04-24T07:06:11;10.30;99.90
51839;DHT22;37886;53.174;6.368;2023-04-24T07:08:38;10.30;99.90
51839;DHT22;37886;53.174;6.368;2023-04-24T07:11:03;10.30;99.90
51839;DHT22;37886;53.174;6.368;2023-04-24T07:13:29;10.30;99.90
51839;DHT22;37886;53.174;6.368;2023-04-24T07:15:55;10.20;99.90
51839;DHT22;37886;53.174;6.368;2023-04-24T07:18:22;10.10;99.90
51839;DHT22;37886;53.174;6.368;2023-04-24T07:20:48;10.00;99.90
51839;DHT22;37886;53.174;6.368;2023-04-24T07:23:16;10.00;99.90
51839;DHT22;37886;53.174;6.368;2023-04-24T07:25:42;10.10;99.90
51839;DHT22;37886;53.174;6.368;2023-04-24T07:28:08;10.10;99.90
51839;DHT22;37886;53.174;6.368;2023-04-24T07:30:33;10.10;99.90
51839;DHT22;37886;53.174;6.368;2023-04-24T07:32:59;10.00;99.90
51839;DHT22;37886;53.174;6.368;2023-04-24T07:35:26;10.00;99.90
51839;DHT22;37886;53.174;6.368;2023-04-24T07:37:53;10.00;99.90
51839;DHT22;37886;53.174;6.368;2023-04-24T07:40:19;10.00;99.90
51839;DHT22;37886;53.174;6.368;2023-04-24T07:42:45;10.00;99.90
51839;DHT22;37886;53.174;6.368;2023-04-24T07:45:11;9.90;99.90
51839;DHT22;37886;53.174;6.368;2023-04-24T07:47:36;9.80;99.90
51839;DHT22;37886;53.174;6.368;2023-04-24T07:50:03;9.80;99.90
51839;DHT22;37886;53.174;6.368;2023-04-24T07:52:29;9.70;99.90
51839;DHT22;37886;53.174;6.368;2023-04-24T07:54:55;9.70;99.90
51839;DHT22;37886;53.174;6.368;2023-04-24T07:57:25;9.70;99.90
51839;DHT22;37886;53.174;6.368;2023-04-24T07:59:51;9.70;99.90
51839;DHT22;37886;53.174;6.368;2023-04-24T08:02:17;9.70;99.90
51839;DHT22;37886;53.174;6.368;2023-04-24T08:04:42;9.60;99.90
51839;DHT22;37886;53.174;6.368;2023-04-24T08:07:08;9.60;99.90
51839;DHT22;37886;53.174;6.368;2023-04-24T08:09:34;9.70;99.90
51839;DHT22;37886;53.174;6.368;2023-04-24T08:12:00;9.60;99.90
51839;DHT22;37886;53.174;6.368;2023-04-24T08:14:26;9.60;99.90
51839;DHT22;37886;53.174;6.368;2023-04-24T08:16:54;9.60;99.90
51839;DHT22;37886;53.174;6.368;2023-04-24T08:19:21;9.60;99.90
51839;DHT22;37886;53.174;6.368;2023-04-24T08:21:47;9.60;99.90
51839;DHT22;37886;53.174;6.368;2023-04-24T08:24:12;9.60;99.90
51839;DHT22;37886;53.174;6.368;2023-04-24T08:26:38;9.60;99.90
51839;DHT22;37886;53.174;6.368;2023-04-24T08:29:04;9.60;99.90
51839;DHT22;37886;53.174;6.368;2023-04-24T08:31:34;9.60;99.90
51839;DHT22;37886;53.174;6.368;2023-04-24T08:34:00;9.50;99.90
51839;DHT22;37886;53.174;6.368;2023-04-24T08:36:30;9.50;99.90
51839;DHT22;37886;53.174;6.368;2023-04-24T08:38:59;9.50;99.90
51839;DHT22;37886;53.174;6.368;2023-04-24T08:41:25;9.50;99.90
51839;DHT22;37886;53.174;6.368;2023-04-24T08:43:52;9.50;99.90
51839;DHT22;37886;53.174;6.368;2023-04-24T08:46:18;9.50;99.90
51839;DHT22;37886;53.174;6.368;2023-04-24T08:48:45;9.50;99.90
51839;DHT22;37886;53.174;6.368;2023-04-24T08:51:11;9.50;99.90
51839;DHT22;37886;53.174;6.368;2023-04-24T08:53:38;9.50;99.90
51839;DHT22;37886;53.174;6.368;2023-04-24T08:56:04;9.50;99.90
51839;DHT22;37886;53.174;6.368;2023-04-24T08:58:31;9.60;99.90
51839;DHT22;37886;53.174;6.368;2023-04-24T09:00:57;9.60;99.90
51839;DHT22;37886;53.174;6.368;2023-04-24T09:03:23;9.60;99.90
51839;DHT22;37886;53.174;6.368;2023-04-24T09:05:50;9.70;99.90
51839;DHT22;37886;53.174;6.368;2023-04-24T09:08:19;9.70;99.90
51839;DHT22;37886;53.174;6.368;2023-04-24T09:10:46;9.70;99.90
51839;DHT22;37886;53.174;6.368;2023-04-24T09:13:12;9.80;99.90
51839;DHT22;37886;53.174;6.368;2023-04-24T09:15:39;9.80;99.90
51839;DHT22;37886;53.174;6.368;2023-04-24T09:18:06;9.90;99.90
51839;DHT22;37886;53.174;6.368;2023-04-24T09:20:32;10.00;99.90
51839;DHT22;37886;53.174;6.368;2023-04-24T09:22:58;10.00;99.90
51839;DHT22;37886;53.174;6.368;2023-04-24T09:25:34;10.00;99.90
51839;DHT22;37886;53.174;6.368;2023-04-24T09:28:04;9.90;99.90
51839;DHT22;37886;53.174;6.368;2023-04-24T09:30:32;9.80;99.90
51839;DHT22;37886;53.174;6.368;2023-04-24T09:33:14;9.70;99.90
51839;DHT22;37886;53.174;6.368;2023-04-24T09:35:50;9.70;99.90
51839;DHT22;37886;53.174;6.368;2023-04-24T09:38:15;9.80;99.90
51839;DHT22;37886;53.174;6.368;2023-04-24T09:40:41;9.70;99.90
51839;DHT22;37886;53.174;6.368;2023-04-24T09:43:10;9.80;99.90
51839;DHT22;37886;53.174;6.368;2023-04-24T09:45:39;9.80;99.90
51839;DHT22;37886;53.174;6.368;2023-04-24T09:48:08;9.90;99.90
51839;DHT22;37886;53.174;6.368;2023-04-24T09:50:34;10.10;99.90
51839;DHT22;37886;53.174;6.368;2023-04-24T09:53:04;10.20;99.90
51839;DHT22;37886;53.174;6.368;2023-04-24T09:55:30;10.30;99.90
51839;DHT22;37886;53.174;6.368;2023-04-24T09:57:58;10.40;99.90
51839;DHT22;37886;53.174;6.368;2023-04-24T10:00:32;10.40;99.90
51839;DHT22;37886;53.174;6.368;2023-04-24T10:03:07;10.50;99.90
51839;DHT22;37886;53.174;6.368;2023-04-24T10:05:35;10.60;99.90
51839;DHT22;37886;53.174;6.368;2023-04-24T10:08:19;10.60;99.90
51839;DHT22;37886;53.174;6.368;2023-04-24T10:10:46;10.80;99.90
51839;DHT22;37886;53.174;6.368;2023-04-24T10:13:13;10.80;99.90
51839;DHT22;37886;53.174;6.368;2023-04-24T10:15:41;10.90;99.90
51839;DHT22;37886;53.174;6.368;2023-04-24T10:18:08;10.90;99.90
51839;DHT22;37886;53.174;6.368;2023-04-24T10:20:36;11.00;99.90
51839;DHT22;37886;53.174;6.368;2023-04-24T10:23:02;11.00;99.90
51839;DHT22;37886;53.174;6.368;2023-04-24T10:25:30;11.00;99.90
51839;DHT22;37886;53.174;6.368;2023-04-24T10:27:57;11.00;99.90
51839;DHT22;37886;53.174;6.368;2023-04-24T10:30:29;11.10;99.90
51839;DHT22;37886;53.174;6.368;2023-04-24T10:32:55;11.00;99.90
51839;DHT22;37886;53.174;6.368;2023-04-24T10:35:22;11.00;99.90
51839;DHT22;37886;53.174;6.368;2023-04-24T10:37:56;11.00;99.90
51839;DHT22;37886;53.174;6.368;2023-04-24T10:40:29;10.90;99.90
51839;DHT22;37886;53.174;6.368;2023-04-24T10:42:56;10.90;99.90
51839;DHT22;37886;53.174;6.368;2023-04-24T10:45:23;10.90;99.90
51839;DHT22;37886;53.174;6.368;2023-04-24T10:48:01;10.90;99.90
51839;DHT22;37886;53.174;6.368;2023-04-24T10:50:48;10.80;99.90
51839;DHT22;37886;53.174;6.368;2023-04-24T10:53:17;10.70;99.90
51839;DHT22;37886;53.174;6.368;2023-04-24T10:55:50;10.80;99.90
51839;DHT22;37886;53.174;6.368;2023-04-24T10:58:23;10.90;99.90
51839;DHT22;37886;53.174;6.368;2023-04-24T11:00:57;11.00;99.90
51839;DHT22;37886;53.174;6.368;2023-04-24T11:03:25;11.00;99.90
51839;DHT22;37886;53.174;6.368;2023-04-24T11:06:07;10.90;99.90
51839;DHT22;37886;53.174;6.368;2023-04-24T11:08:47;10.90;99.90
51839;DHT22;37886;53.174;6.368;2023-04-24T11:11:15;10.80;99.90
51839;DHT22;37886;53.174;6.368;2023-04-24T11:16:31;10.70;99.90
51839;DHT22;37886;53.174;6.368;2023-04-24T11:24:35;10.40;99.90
51839;DHT22;37886;53.174;6.368;2023-04-24T11:29:44;10.80;99.90
51839;DHT22;37886;53.174;6.368;2023-04-24T11:34:55;10.90;99.90
51839;DHT22;37886;53.174;6.368;2023-04-24T11:37:44;10.80;99.90
51839;DHT22;37886;53.174;6.368;2023-04-24T11:40:13;10.70;99.90
51839;DHT22;37886;53.174;6.368;2023-04-24T11:42:45;10.50;99.90
51839;DHT22;37886;53.174;6.368;2023-04-24T11:45:16;10.30;99.90
51839;DHT22;37886;53.174;6.368;2023-04-24T11:47:43;10.10;99.90
51839;DHT22;37886;53.174;6.368;2023-04-24T11:50:21;10.00;99.90
51839;DHT22;37886;53.174;6.368;2023-04-24T11:52:48;9.90;99.90
51839;DHT22;37886;53.174;6.368;2023-04-24T11:57:43;9.70;99.90
51839;DHT22;37886;53.174;6.368;2023-04-24T12:00:19;9.60;99.90
51839;DHT22;37886;53.174;6.368;2023-04-24T12:02:46;9.50;99.90
51839;DHT22;37886;53.174;6.368;2023-04-24T12:05:26;9.60;99.90
51839;DHT22;37886;53.174;6.368;2023-04-24T12:07:52;9.70;99.90
51839;DHT22;37886;53.174;6.368;2023-04-24T12:10:26;9.90;99.90
51839;DHT22;37886;53.174;6.368;2023-04-24T12:12:53;10.10;99.90
51839;DHT22;37886;53.174;6.368;2023-04-24T12:15:20;10.30;99.90
51839;DHT22;37886;53.174;6.368;2023-04-24T12:17:46;10.40;99.90
51839;DHT22;37886;53.174;6.368;2023-04-24T12:20:13;10.40;99.90
51839;DHT22;37886;53.174;6.368;2023-04-24T12:22:48;10.50;99.90
51839;DHT22;37886;53.174;6.368;2023-04-24T12:25:17;10.50;99.90
51839;DHT22;37886;53.174;6.368;2023-04-24T12:27:44;10.40;99.90
51839;DHT22;37886;53.174;6.368;2023-04-24T12:30:16;10.30;99.90
51839;DHT22;37886;53.174;6.368;2023-04-24T12:32:47;10.20;99.90
51839;DHT22;37886;53.174;6.368;2023-04-24T12:35:13;10.20;99.90
51839;DHT22;37886;53.174;6.368;2023-04-24T12:37:42;10.30;99.90
51839;DHT22;37886;53.174;6.368;2023-04-24T12:40:10;10.30;99.90
51839;DHT22;37886;53.174;6.368;2023-04-24T12:42:46;10.50;99.90
51839;DHT22;37886;53.174;6.368;2023-04-24T12:45:13;10.60;99.90
51839;DHT22;37886;53.174;6.368;2023-04-24T12:47:40;10.50;99.90
51839;DHT22;37886;53.174;6.368;2023-04-24T12:50:07;10.40;99.90
51839;DHT22;37886;53.174;6.368;2023-04-24T12:52:33;10.40;99.90
51839;DHT22;37886;53.174;6.368;2023-04-24T12:55:00;10.20;99.90
51839;DHT22;37886;53.174;6.368;2023-04-24T12:57:30;10.20;99.90
51839;DHT22;37886;53.174;6.368;2023-04-24T12:59:57;10.20;99.90
51839;DHT22;37886;53.174;6.368;2023-04-24T13:02:24;10.30;99.90
51839;DHT22;37886;53.174;6.368;2023-04-24T13:04:50;10.50;99.90
51839;DHT22;37886;53.174;6.368;2023-04-24T13:07:16;10.50;99.90
51839;DHT22;37886;53.174;6.368;2023-04-24T13:09:43;10.50;99.90
51839;DHT22;37886;53.174;6.368;2023-04-24T13:12:10;10.50;99.90
51839;DHT22;37886;53.174;6.368;2023-04-24T13:14:37;10.50;99.90
51839;DHT22;37886;53.174;6.368;2023-04-24T13:17:03;10.50;99.90
51839;DHT22;37886;53.174;6.368;2023-04-24T13:19:29;10.50;99.90
51839;DHT22;37886;53.174;6.368;2023-04-24T13:21:57;10.60;99.90
51839;DHT22;37886;53.174;6.368;2023-04-24T13:24:24;10.70;99.90
51839;DHT22;37886;53.174;6.368;2023-04-24T13:26:50;10.80;99.90
51839;DHT22;37886;53.174;6.368;2023-04-24T13:29:17;10.90;99.90
51839;DHT22;37886;53.174;6.368;2023-04-24T13:31:42;10.80;99.90
51839;DHT22;37886;53.174;6.368;2023-04-24T13:34:08;10.60;99.90
51839;DHT22;37886;53.174;6.368;2023-04-24T13:36:34;10.60;99.90
51839;DHT22;37886;53.174;6.368;2023-04-24T13:39:00;10.50;99.90
51839;DHT22;37886;53.174;6.368;2023-04-24T13:41:26;10.50;99.90
51839;DHT22;37886;53.174;6.368;2023-04-24T13:43:52;10.50;99.90
51839;DHT22;37886;53.174;6.368;2023-04-24T13:46:18;10.40;99.90
51839;DHT22;37886;53.174;6.368;2023-04-24T13:48:43;10.50;99.90
51839;DHT22;37886;53.174;6.368;2023-04-24T13:51:09;10.40;99.90
51839;DHT22;37886;53.174;6.368;2023-04-24T13:53:35;10.30;99.90
51839;DHT22;37886;53.174;6.368;2023-04-24T13:56:04;10.10;99.90
51839;DHT22;37886;53.174;6.368;2023-04-24T13:58:30;10.00;99.90
51839;DHT22;37886;53.174;6.368;2023-04-24T14:00:56;9.80;99.90
51839;DHT22;37886;53.174;6.368;2023-04-24T14:03:21;9.70;99.90
51839;DHT22;37886;53.174;6.368;2023-04-24T14:05:47;9.60;99.90
51839;DHT22;37886;53.174;6.368;2023-04-24T14:08:12;9.60;99.90
51839;DHT22;37886;53.174;6.368;2023-04-24T14:10:38;9.60;99.90
51839;DHT22;37886;53.174;6.368;2023-04-24T14:13:04;9.50;99.90
51839;DHT22;37886;53.174;6.368;2023-04-24T14:15:31;9.50;99.90
51839;DHT22;37886;53.174;6.368;2023-04-24T14:17:56;9.50;99.90
51839;DHT22;37886;53.174;6.368;2023-04-24T14:20:22;9.50;99.90
51839;DHT22;37886;53.174;6.368;2023-04-24T14:22:48;9.70;99.90
51839;DHT22;37886;53.174;6.368;2023-04-24T14:25:14;10.00;99.90
51839;DHT22;37886;53.174;6.368;2023-04-24T14:27:40;10.20;99.90
51839;DHT22;37886;53.174;6.368;2023-04-24T14:30:07;10.40;99.90
51839;DHT22;37886;53.174;6.368;2023-04-24T14:32:33;10.40;99.90
51839;DHT22;37886;53.174;6.368;2023-04-24T14:34:58;10.30;99.90
51839;DHT22;37886;53.174;6.368;2023-04-24T14:37:24;10.20;99.90
51839;DHT22;37886;53.174;6.368;2023-04-24T14:39:50;10.10;99.90
51839;DHT22;37886;53.174;6.368;2023-04-24T14:42:15;10.10;99.90
51839;DHT22;37886;53.174;6.368;2023-04-24T14:44:42;10.00;99.90
51839;DHT22;37886;53.174;6.368;2023-04-24T14:47:08;9.90;99.90
51839;DHT22;37886;53.174;6.368;2023-04-24T14:49:34;9.80;99.90
51839;DHT22;37886;53.174;6.368;2023-04-24T14:51:59;9.70;99.90
51839;DHT22;37886;53.174;6.368;2023-04-24T14:54:25;9.60;99.90
51839;DHT22;37886;53.174;6.368;2023-04-24T14:56:51;9.50;99.90
51839;DHT22;37886;53.174;6.368;2023-04-24T14:59:16;9.60;99.90
51839;DHT22;37886;53.174;6.368;2023-04-24T15:01:42;9.60;99.90
51839;DHT22;37886;53.174;6.368;2023-04-24T15:04:08;9.70;99.90
51839;DHT22;37886;53.174;6.368;2023-04-24T15:06:33;9.70;99.90
51839;DHT22;37886;53.174;6.368;2023-04-24T15:08:59;9.70;99.90
51839;DHT22;37886;53.174;6.368;2023-04-24T15:11:25;9.70;99.90
51839;DHT22;37886;53.174;6.368;2023-04-24T15:13:51;9.60;99.90
51839;DHT22;37886;53.174;6.368;2023-04-24T15:16:17;9.60;99.90
51839;DHT22;37886;53.174;6.368;2023-04-24T15:18:42;9.50;99.90
51839;DHT22;37886;53.174;6.368;2023-04-24T15:21:08;9.50;99.90
51839;DHT22;37886;53.174;6.368;2023-04-24T15:23:34;9.70;99.90
51839;DHT22;37886;53.174;6.368;2023-04-24T15:26:00;9.80;99.90
51839;DHT22;37886;53.174;6.368;2023-04-24T15:28:26;9.80;99.90
51839;DHT22;37886;53.174;6.368;2023-04-24T15:30:52;9.70;99.90
51839;DHT22;37886;53.174;6.368;2023-04-24T15:33:17;9.70;99.90
51839;DHT22;37886;53.174;6.368;2023-04-24T15:35:43;9.60;99.90
51839;DHT22;37886;53.174;6.368;2023-04-24T15:38:09;9.40;99.90
51839;DHT22;37886;53.174;6.368;2023-04-24T15:40:34;9.30;99.90
51839;DHT22;37886;53.174;6.368;2023-04-24T15:43:00;9.40;99.90
51839;DHT22;37886;53.174;6.368;2023-04-24T15:45:26;9.40;99.90
51839;DHT22;37886;53.174;6.368;2023-04-24T15:47:52;9.30;99.90
51839;DHT22;37886;53.174;6.368;2023-04-24T15:50:18;9.20;99.90